sensor_id;sensor_type;location;lat;lon;timestamp;pressure;altitude;pressure_sealevel;temperature;humidity
8573;BME280;4324;42.012;24.872;2022-07-22T00:01:39;98856.06;;;24.81;52.08
8573;BME280;4324;42.012;24.872;2022-07-22T00:04:06;98855.81;;;24.87;51.91
8573;BME280;4324;42.012;24.872;2022-07-22T00:06:34;98861.00;;;24.94;51.83
8573;BME280;4324;42.012;24.872;2022-07-22T00:09:02;98850.44;;;24.93;51.68
8573;BME280;4324;42.012;24.872;2022-07-22T00:11:29;98856.72;;;25.03;51.41
8573;BME280;4324;42.012;24.872;2022-07-22T00:13:56;98865.38;;;25.05;51.34
8573;BME280;4324;42.012;24.872;2022-07-22T00:16:23;98859.97;;;25.05;51.35
8573;BME280;4324;42.012;24.872;2022-07-22T00:18:50;98859.44;;;25.03;51.73
8573;BME280;4324;42.012;24.872;2022-07-22T00:21:17;98861.88;;;25.05;51.31
8573;BME280;4324;42.012;24.872;2022-07-22T00:23:45;98868.09;;;25.05;51.31
8573;BME280;4324;42.012;24.872;2022-07-22T00:26:12;98864.84;;;25.03;51.30
8573;BME280;4324;42.012;24.872;2022-07-22T00:28:39;98872.41;;;25.01;51.28
8573;BME280;4324;42.012;24.872;2022-07-22T00:31:06;98869.19;;;24.99;51.76
8573;BME280;4324;42.012;24.872;2022-07-22T00:33:33;98868.03;;;24.95;51.69
8573;BME280;4324;42.012;24.872;2022-07-22T00:36:00;98867.75;;;24.92;51.80
8573;BME280;4324;42.012;24.872;2022-07-22T00:38:27;98873.16;;;24.92;51.66
8573;BME280;4324;42.012;24.872;2022-07-22T00:40:55;98874.00;;;24.92;51.82
8573;BME280;4324;42.012;24.872;2022-07-22T00:43:22;98872.41;;;24.96;51.85
8573;BME280;4324;42.012;24.872;2022-07-22T00:45:49;98872.66;;;24.95;51.77
8573;BME280;4324;42.012;24.872;2022-07-22T00:48:16;98864.50;;;24.84;51.98
8573;BME280;4324;42.012;24.872;2022-07-22T00:50:42;98873.44;;;24.85;51.60
8573;BME280;4324;42.012;24.872;2022-07-22T00:53:09;98860.94;;;24.79;51.69
8573;BME280;4324;42.012;24.872;2022-07-22T00:55:37;98866.34;;;24.84;51.83
8573;BME280;4324;42.012;24.872;2022-07-22T00:58:06;98861.44;;;24.76;51.50
8573;BME280;4324;42.012;24.872;2022-07-22T01:00:32;98873.38;;;24.80;51.37
8573;BME280;4324;42.012;24.872;2022-07-22T01:02:59;98868.25;;;24.78;51.49
8573;BME280;4324;42.012;24.872;2022-07-22T01:05:27;98866.34;;;24.79;51.02
8573;BME280;4324;42.012;24.872;2022-07-22T01:07:53;98862.03;;;24.83;50.89
8573;BME280;4324;42.012;24.872;2022-07-22T01:10:21;98864.22;;;24.86;50.54
8573;BME280;4324;42.012;24.872;2022-07-22T01:12:47;98860.13;;;24.83;50.65
8573;BME280;4324;42.012;24.872;2022-07-22T01:15:16;98867.19;;;24.84;50.64
8573;BME280;4324;42.012;24.872;2022-07-22T01:17:43;98850.09;;;24.74;50.11
8573;BME280;4324;42.012;24.872;2022-07-22T01:20:11;98868.53;;;24.82;49.82
8573;BME280;4324;42.012;24.872;2022-07-22T01:22:38;98869.56;;;24.76;49.90
8573;BME280;4324;42.012;24.872;2022-07-22T01:25:05;98877.97;;;24.79;49.96
8573;BME280;4324;42.012;24.872;2022-07-22T01:27:32;98873.88;;;24.72;50.18
8573;BME280;4324;42.012;24.872;2022-07-22T01:29:59;98878.22;;;24.73;49.89
8573;BME280;4324;42.012;24.872;2022-07-22T01:32:26;98871.16;;;24.67;50.17
8573;BME280;4324;42.012;24.872;2022-07-22T01:34:53;98872.47;;;24.64;50.05
8573;BME280;4324;42.012;24.872;2022-07-22T01:37:21;98866.47;;;24.57;49.96
8573;BME280;4324;42.012;24.872;2022-07-22T01:39:48;98874.06;;;24.60;50.34
8573;BME280;4324;42.012;24.872;2022-07-22T01:42:15;98857.81;;;24.55;50.00
8573;BME280;4324;42.012;24.872;2022-07-22T01:44:42;98868.09;;;24.58;50.04
8573;BME280;4324;42.012;24.872;2022-07-22T01:47:10;98873.81;;;24.61;50.11
8573;BME280;4324;42.012;24.872;2022-07-22T01:49:37;98878.69;;;24.65;49.90
8573;BME280;4324;42.012;24.872;2022-07-22T01:52:04;98869.50;;;24.66;49.92
8573;BME280;4324;42.012;24.872;2022-07-22T01:54:32;98864.06;;;24.60;49.46
8573;BME280;4324;42.012;24.872;2022-07-22T01:56:59;98857.56;;;24.61;49.63
8573;BME280;4324;42.012;24.872;2022-07-22T01:59:26;98867.88;;;24.65;49.35
8573;BME280;4324;42.012;24.872;2022-07-22T02:01:53;98862.47;;;24.65;49.24
8573;BME280;4324;42.012;24.872;2022-07-22T02:04:20;98864.94;;;24.66;49.17
8573;BME280;4324;42.012;24.872;2022-07-22T02:06:47;98863.28;;;24.65;49.37
8573;BME280;4324;42.012;24.872;2022-07-22T02:09:14;98857.03;;;24.65;49.08
8573;BME280;4324;42.012;24.872;2022-07-22T02:11:42;98853.81;;;24.62;48.92
8573;BME280;4324;42.012;24.872;2022-07-22T02:14:09;98857.03;;;24.65;49.02
8573;BME280;4324;42.012;24.872;2022-07-22T02:16:36;98857.03;;;24.65;48.86
8573;BME280;4324;42.012;24.872;2022-07-22T02:19:03;98868.44;;;24.67;49.01
8573;BME280;4324;42.012;24.872;2022-07-22T02:21:30;98824.19;;;24.46;48.88
8573;BME280;4324;42.012;24.872;2022-07-22T02:23:57;98857.84;;;24.65;49.04
8573;BME280;4324;42.012;24.872;2022-07-22T02:26:24;98864.63;;;24.62;48.80
8573;BME280;4324;42.012;24.872;2022-07-22T02:28:52;98785.78;;;24.11;48.91
8573;BME280;4324;42.012;24.872;2022-07-22T02:31:19;98863.78;;;24.62;49.10
8573;BME280;4324;42.012;24.872;2022-07-22T02:33:46;98861.34;;;24.60;49.22
8573;BME280;4324;42.012;24.872;2022-07-22T02:36:14;98846.69;;;24.51;49.40
8573;BME280;4324;42.012;24.872;2022-07-22T02:38:41;98849.13;;;24.53;49.14
8573;BME280;4324;42.012;24.872;2022-07-22T02:41:07;98850.47;;;24.50;49.36
8573;BME280;4324;42.012;24.872;2022-07-22T02:43:34;98854.81;;;24.51;49.45
8573;BME280;4324;42.012;24.872;2022-07-22T02:46:03;98851.81;;;24.48;49.46
8573;BME280;4324;42.012;24.872;2022-07-22T02:48:30;98845.56;;;24.47;49.55
8573;BME280;4324;42.012;24.872;2022-07-22T02:50:57;98848.25;;;24.47;49.46
8573;BME280;4324;42.012;24.872;2022-07-22T02:53:24;98848.25;;;24.47;49.32
8573;BME280;4324;42.012;24.872;2022-07-22T02:55:51;98841.50;;;24.45;49.15
8573;BME280;4324;42.012;24.872;2022-07-22T02:58:18;98839.03;;;24.43;49.37
8573;BME280;4324;42.012;24.872;2022-07-22T03:00:45;98842.81;;;24.42;49.20
8573;BME280;4324;42.012;24.872;2022-07-22T03:03:13;98828.44;;;24.36;48.86
8573;BME280;4324;42.012;24.872;2022-07-22T03:05:40;98839.88;;;24.44;48.79
8573;BME280;4324;42.012;24.872;2022-07-22T03:08:07;98837.16;;;24.44;49.15
8573;BME280;4324;42.012;24.872;2022-07-22T03:10:34;98843.63;;;24.43;49.03
8573;BME280;4324;42.012;24.872;2022-07-22T03:13:01;98840.63;;;24.39;48.95
8573;BME280;4324;42.012;24.872;2022-07-22T03:15:27;98840.13;;;24.42;49.01
8573;BME280;4324;42.012;24.872;2022-07-22T03:17:54;98841.44;;;24.39;49.13
8573;BME280;4324;42.012;24.872;2022-07-22T03:20:23;98844.16;;;24.39;48.75
8573;BME280;4324;42.012;24.872;2022-07-22T03:22:50;98839.78;;;24.38;49.03
8573;BME280;4324;42.012;24.872;2022-07-22T03:25:17;98850.88;;;24.37;48.83
8573;BME280;4324;42.012;24.872;2022-07-22T03:27:44;98854.16;;;24.39;48.81
8573;BME280;4324;42.012;24.872;2022-07-22T03:30:11;98853.31;;;24.38;48.82
8573;BME280;4324;42.012;24.872;2022-07-22T03:32:38;98852.50;;;24.38;49.02
8573;BME280;4324;42.012;24.872;2022-07-22T03:35:10;98848.53;;;24.46;48.72
8573;BME280;4324;42.012;24.872;2022-07-22T03:37:38;98850.16;;;24.47;48.92
8573;BME280;4324;42.012;24.872;2022-07-22T03:40:05;98854.03;;;24.56;48.99
8573;BME280;4324;42.012;24.872;2022-07-22T03:42:32;98859.81;;;24.70;48.51
8573;BME280;4324;42.012;24.872;2022-07-22T03:44:59;98855.75;;;24.72;48.54
8573;BME280;4324;42.012;24.872;2022-07-22T03:47:26;98870.13;;;24.78;48.58
8573;BME280;4324;42.012;24.872;2022-07-22T03:49:53;98866.34;;;24.84;48.27
8573;BME280;4324;42.012;24.872;2022-07-22T03:52:20;98869.13;;;24.89;48.10
8573;BME280;4324;42.012;24.872;2022-07-22T03:54:48;98862.03;;;24.88;48.34
8573;BME280;4324;42.012;24.872;2022-07-22T03:57:15;98867.22;;;24.95;48.17
8573;BME280;4324;42.012;24.872;2022-07-22T03:59:42;98864.22;;;24.91;48.08
8573;BME280;4324;42.012;24.872;2022-07-22T04:02:09;98872.66;;;24.95;48.27
8573;BME280;4324;42.012;24.872;2022-07-22T04:04:36;98869.41;;;24.98;48.13
8573;BME280;4324;42.012;24.872;2022-07-22T04:07:03;98862.66;;;25.00;48.33
8573;BME280;4324;42.012;24.872;2022-07-22T04:09:30;98866.72;;;25.03;48.22
8573;BME280;4324;42.012;24.872;2022-07-22T04:11:58;98879.75;;;25.06;47.77
8573;BME280;4324;42.012;24.872;2022-07-22T04:14:25;98871.91;;;25.04;47.96
8573;BME280;4324;42.012;24.872;2022-07-22T04:16:52;98865.38;;;25.05;48.02
8573;BME280;4324;42.012;24.872;2022-07-22T04:19:19;98875.75;;;25.14;47.65
8573;BME280;4324;42.012;24.872;2022-07-22T04:21:46;98863.78;;;25.09;47.61
8573;BME280;4324;42.012;24.872;2022-07-22T04:24:13;98872.28;;;25.18;47.92
8573;BME280;4324;42.012;24.872;2022-07-22T04:26:39;98869.56;;;25.23;47.78
8573;BME280;4324;42.012;24.872;2022-07-22T04:29:08;98878.56;;;25.34;47.56
8573;BME280;4324;42.012;24.872;2022-07-22T04:31:34;98882.66;;;25.42;47.64
8573;BME280;4324;42.012;24.872;2022-07-22T04:34:02;98873.69;;;25.41;47.49
8573;BME280;4324;42.012;24.872;2022-07-22T04:36:28;98873.19;;;25.44;47.29
8573;BME280;4324;42.012;24.872;2022-07-22T04:38:55;98879.69;;;25.53;47.18
8573;BME280;4324;42.012;24.872;2022-07-22T04:41:22;98882.69;;;25.62;47.49
8573;BME280;4324;42.012;24.872;2022-07-22T04:43:49;98883.25;;;25.69;47.22
8573;BME280;4324;42.012;24.872;2022-07-22T04:46:17;98881.38;;;25.75;46.88
8573;BME280;4324;42.012;24.872;2022-07-22T04:48:44;98878.69;;;25.75;46.92
8573;BME280;4324;42.012;24.872;2022-07-22T04:51:11;98878.69;;;25.80;46.82
8573;BME280;4324;42.012;24.872;2022-07-22T04:53:38;98897.72;;;25.95;46.99
8573;BME280;4324;42.012;24.872;2022-07-22T04:56:06;98890.13;;;25.97;46.65
8573;BME280;4324;42.012;24.872;2022-07-22T04:58:33;98896.66;;;26.01;46.63
8573;BME280;4324;42.012;24.872;2022-07-22T05:01:00;98898.28;;;26.13;46.36
8573;BME280;4324;42.012;24.872;2022-07-22T05:03:29;98889.59;;;26.21;46.65
8573;BME280;4324;42.012;24.872;2022-07-22T05:05:55;98896.66;;;26.27;46.40
8573;BME280;4324;42.012;24.872;2022-07-22T05:08:22;98898.31;;;26.33;46.09
8573;BME280;4324;42.012;24.872;2022-07-22T05:10:49;98900.47;;;26.41;46.16
8573;BME280;4324;42.012;24.872;2022-07-22T05:13:16;98891.00;;;26.49;46.00
8573;BME280;4324;42.012;24.872;2022-07-22T05:15:43;98895.06;;;26.57;46.22
8573;BME280;4324;42.012;24.872;2022-07-22T05:18:10;98898.31;;;26.64;46.01
8573;BME280;4324;42.012;24.872;2022-07-22T05:20:38;98896.94;;;26.71;46.04
8573;BME280;4324;42.012;24.872;2022-07-22T05:23:05;98895.59;;;26.74;45.97
8573;BME280;4324;42.012;24.872;2022-07-22T05:25:37;98888.50;;;26.83;45.84
8573;BME280;4324;42.012;24.872;2022-07-22T05:28:04;98895.53;;;26.89;46.07
8573;BME280;4324;42.012;24.872;2022-07-22T05:30:31;98883.03;;;26.88;45.83
8573;BME280;4324;42.012;24.872;2022-07-22T05:32:58;98888.44;;;26.98;45.72
8573;BME280;4324;42.012;24.872;2022-07-22T05:35:25;98886.81;;;27.08;45.54
8573;BME280;4324;42.012;24.872;2022-07-22T05:37:54;98880.81;;;27.11;45.16
8573;BME280;4324;42.012;24.872;2022-07-22T05:40:21;98890.34;;;27.18;45.44
8573;BME280;4324;42.012;24.872;2022-07-22T05:42:48;98886.78;;;27.23;45.27
8573;BME280;4324;42.012;24.872;2022-07-22T05:45:15;98886.75;;;27.28;45.18
8573;BME280;4324;42.012;24.872;2022-07-22T05:47:43;98875.88;;;27.33;45.16
8573;BME280;4324;42.012;24.872;2022-07-22T05:50:09;98882.59;;;27.46;45.20
8573;BME280;4324;42.012;24.872;2022-07-22T05:52:37;98829.69;;;27.23;44.64
8573;BME280;4324;42.012;24.872;2022-07-22T05:55:06;98883.84;;;27.64;44.49
8573;BME280;4324;42.012;24.872;2022-07-22T05:57:33;98881.34;;;27.72;44.31
8573;BME280;4324;42.012;24.872;2022-07-22T06:00:01;98879.72;;;27.77;44.55
8573;BME280;4324;42.012;24.872;2022-07-22T06:02:28;98882.94;;;27.84;44.44
8573;BME280;4324;42.012;24.872;2022-07-22T06:04:55;98871.25;;;27.83;44.51
8573;BME280;4324;42.012;24.872;2022-07-22T06:07:22;98876.69;;;27.83;44.51
8573;BME280;4324;42.012;24.872;2022-07-22T06:09:50;98878.84;;;27.86;44.12
8573;BME280;4324;42.012;24.872;2022-07-22T06:12:19;98877.19;;;27.90;44.25
8573;BME280;4324;42.012;24.872;2022-07-22T06:14:46;98876.66;;;27.88;43.94
8573;BME280;4324;42.012;24.872;2022-07-22T06:17:13;98871.75;;;27.90;43.96
8573;BME280;4324;42.012;24.872;2022-07-22T06:19:40;98870.88;;;27.95;44.03
8573;BME280;4324;42.012;24.872;2022-07-22T06:22:07;98858.59;;;28.03;43.96
8573;BME280;4324;42.012;24.872;2022-07-22T06:24:35;98861.78;;;28.15;43.71
8573;BME280;4324;42.012;24.872;2022-07-22T06:27:02;98850.22;;;28.28;43.71
8573;BME280;4324;42.012;24.872;2022-07-22T06:29:31;98850.69;;;28.35;43.56
8573;BME280;4324;42.012;24.872;2022-07-22T06:31:58;98853.94;;;28.42;43.39
8573;BME280;4324;42.012;24.872;2022-07-22T06:34:25;98859.00;;;28.54;43.24
8573;BME280;4324;42.012;24.872;2022-07-22T06:36:52;98860.28;;;28.62;43.10
8573;BME280;4324;42.012;24.872;2022-07-22T06:39:19;98844.97;;;28.66;43.34
8573;BME280;4324;42.012;24.872;2022-07-22T06:41:46;98856.53;;;28.82;43.02
8573;BME280;4324;42.012;24.872;2022-07-22T06:44:12;98857.16;;;28.98;42.85
8573;BME280;4324;42.012;24.872;2022-07-22T06:46:42;98861.19;;;29.05;42.73
8573;BME280;4324;42.012;24.872;2022-07-22T06:49:09;98855.44;;;29.07;42.49
8573;BME280;4324;42.012;24.872;2022-07-22T06:51:36;98846.41;;;29.11;42.75
8573;BME280;4324;42.012;24.872;2022-07-22T06:54:03;98859.97;;;29.16;42.65
8573;BME280;4324;42.012;24.872;2022-07-22T06:56:30;98857.56;;;29.15;42.70
8573;BME280;4324;42.012;24.872;2022-07-22T06:58:57;98855.09;;;29.13;42.58
8573;BME280;4324;42.012;24.872;2022-07-22T07:01:24;98857.56;;;29.15;42.71
8573;BME280;4324;42.012;24.872;2022-07-22T07:03:52;98856.44;;;29.16;42.69
8573;BME280;4324;42.012;24.872;2022-07-22T07:06:19;98865.50;;;29.11;42.76
8573;BME280;4324;42.012;24.872;2022-07-22T07:08:46;98861.34;;;29.14;42.99
8573;BME280;4324;42.012;24.872;2022-07-22T07:11:14;98857.66;;;29.05;43.11
8573;BME280;4324;42.012;24.872;2022-07-22T07:13:41;98876.69;;;29.10;43.30
8573;BME280;4324;42.012;24.872;2022-07-22T07:16:07;98875.06;;;29.09;42.91
8573;BME280;4324;42.012;24.872;2022-07-22T07:18:35;98874.72;;;29.15;43.16
8573;BME280;4324;42.012;24.872;2022-07-22T07:21:04;98880.03;;;29.26;42.92
8573;BME280;4324;42.012;24.872;2022-07-22T07:23:31;98875.88;;;29.33;42.61
8573;BME280;4324;42.012;24.872;2022-07-22T07:25:58;98879.66;;;29.32;42.47
8573;BME280;4324;42.012;24.872;2022-07-22T07:28:26;98872.28;;;29.33;42.17
8573;BME280;4324;42.012;24.872;2022-07-22T07:30:53;98865.69;;;29.39;42.12
8573;BME280;4324;42.012;24.872;2022-07-22T07:33:20;98864.81;;;29.43;42.21
8573;BME280;4324;42.012;24.872;2022-07-22T07:35:47;98867.94;;;29.56;42.07
8573;BME280;4324;42.012;24.872;2022-07-22T07:38:16;98867.28;;;29.64;41.92
8573;BME280;4324;42.012;24.872;2022-07-22T07:40:43;98867.22;;;29.69;42.17
8573;BME280;4324;42.012;24.872;2022-07-22T07:43:10;98870.59;;;29.80;41.73
8573;BME280;4324;42.012;24.872;2022-07-22T07:45:37;98863.22;;;29.80;41.72
8573;BME280;4324;42.012;24.872;2022-07-22T07:48:05;98870.50;;;29.85;41.96
8573;BME280;4324;42.012;24.872;2022-07-22T07:50:32;98868.31;;;29.87;41.92
8573;BME280;4324;42.012;24.872;2022-07-22T07:52:59;98844.44;;;29.79;41.93
8573;BME280;4324;42.012;24.872;2022-07-22T07:55:28;98863.72;;;30.01;41.67
8573;BME280;4324;42.012;24.872;2022-07-22T07:57:55;98861.94;;;30.10;41.69
8573;BME280;4324;42.012;24.872;2022-07-22T08:00:24;98870.53;;;30.23;41.16
8573;BME280;4324;42.012;24.872;2022-07-22T08:02:53;98862.34;;;30.36;41.37
8573;BME280;4324;42.012;24.872;2022-07-22T08:05:27;98862.09;;;30.52;41.12
8573;BME280;4324;42.012;24.872;2022-07-22T08:07:54;98862.31;;;30.69;40.55
8573;BME280;4324;42.012;24.872;2022-07-22T08:10:21;98860.97;;;30.85;40.24
8573;BME280;4324;42.012;24.872;2022-07-22T08:12:50;98862.97;;;30.94;40.45
8573;BME280;4324;42.012;24.872;2022-07-22T08:15:17;98852.53;;;30.96;40.52
8573;BME280;4324;42.012;24.872;2022-07-22T08:17:44;98857.50;;;31.07;39.92
8573;BME280;4324;42.012;24.872;2022-07-22T08:20:11;98853.88;;;31.12;40.19
8573;BME280;4324;42.012;24.872;2022-07-22T08:22:38;98864.06;;;31.20;40.04
8573;BME280;4324;42.012;24.872;2022-07-22T08:25:05;98855.47;;;31.13;39.86
8573;BME280;4324;42.012;24.872;2022-07-22T08:27:34;98853.25;;;31.15;39.92
8573;BME280;4324;42.012;24.872;2022-07-22T08:30:03;98856.69;;;31.21;40.01
8573;BME280;4324;42.012;24.872;2022-07-22T08:32:31;98826.31;;;30.95;39.84
8573;BME280;4324;42.012;24.872;2022-07-22T08:34:58;98853.06;;;31.12;39.87
8573;BME280;4324;42.012;24.872;2022-07-22T08:37:26;98853.47;;;31.05;40.00
8573;BME280;4324;42.012;24.872;2022-07-22T08:39:53;98858.41;;;31.03;40.10
8573;BME280;4324;42.012;24.872;2022-07-22T08:42:20;98854.56;;;31.04;39.76
8573;BME280;4324;42.012;24.872;2022-07-22T08:44:48;98842.50;;;31.05;39.61
8573;BME280;4324;42.012;24.872;2022-07-22T08:47:20;98850.22;;;31.30;39.65
8573;BME280;4324;42.012;24.872;2022-07-22T08:49:48;98842.06;;;31.53;39.43
8573;BME280;4324;42.012;24.872;2022-07-22T08:52:15;98859.53;;;31.79;39.03
8573;BME280;4324;42.012;24.872;2022-07-22T08:54:42;98853.34;;;31.88;39.17
8573;BME280;4324;42.012;24.872;2022-07-22T08:57:09;98860.31;;;31.94;38.82
8573;BME280;4324;42.012;24.872;2022-07-22T08:59:49;98864.06;;;31.98;39.11
8573;BME280;4324;42.012;24.872;2022-07-22T09:02:18;98863.44;;;32.01;39.19
8573;BME280;4324;42.012;24.872;2022-07-22T09:04:51;98862.81;;;32.04;39.11
8573;BME280;4324;42.012;24.872;2022-07-22T09:07:24;98867.66;;;32.07;38.82
8573;BME280;4324;42.012;24.872;2022-07-22T09:09:51;98859.31;;;32.12;38.54
8573;BME280;4324;42.012;24.872;2022-07-22T09:12:18;98862.31;;;32.24;38.53
8573;BME280;4324;42.012;24.872;2022-07-22T09:14:47;98866.22;;;32.32;38.61
8573;BME280;4324;42.012;24.872;2022-07-22T09:17:29;98863.03;;;32.39;38.32
8573;BME280;4324;42.012;24.872;2022-07-22T09:19:59;98863.44;;;32.46;38.33
8573;BME280;4324;42.012;24.872;2022-07-22T09:22:34;98867.16;;;32.50;38.23
8573;BME280;4324;42.012;24.872;2022-07-22T09:25:20;98856.03;;;32.46;37.79
8573;BME280;4324;42.012;24.872;2022-07-22T09:27:48;98854.63;;;32.58;38.16
8573;BME280;4324;42.012;24.872;2022-07-22T09:30:17;98856.16;;;32.72;37.77
8573;BME280;4324;42.012;24.872;2022-07-22T09:32:47;98851.75;;;32.94;37.49
8573;BME280;4324;42.012;24.872;2022-07-22T09:35:16;98854.34;;;32.99;37.23
8573;BME280;4324;42.012;24.872;2022-07-22T09:37:49;98864.19;;;33.00;36.96
8573;BME280;4324;42.012;24.872;2022-07-22T09:40:18;98860.16;;;32.97;36.96
8573;BME280;4324;42.012;24.872;2022-07-22T09:42:48;98854.34;;;32.99;36.96
8573;BME280;4324;42.012;24.872;2022-07-22T09:45:15;98845.47;;;33.02;36.46
8573;BME280;4324;42.012;24.872;2022-07-22T09:47:43;98849.84;;;33.03;36.53
8573;BME280;4324;42.012;24.872;2022-07-22T09:50:18;98848.41;;;33.14;36.38
8573;BME280;4324;42.012;24.872;2022-07-22T09:52:46;98849.94;;;33.38;36.34
8573;BME280;4324;42.012;24.872;2022-07-22T09:55:14;98851.44;;;33.61;35.84
8573;BME280;4324;42.012;24.872;2022-07-22T09:57:42;98840.59;;;33.73;35.65
8573;BME280;4324;42.012;24.872;2022-07-22T10:00:09;98843.22;;;33.79;35.30
8573;BME280;4324;42.012;24.872;2022-07-22T10:02:41;98833.50;;;33.90;35.19
8573;BME280;4324;42.012;24.872;2022-07-22T10:05:08;98838.31;;;33.93;34.78
8573;BME280;4324;42.012;24.872;2022-07-22T10:07:40;98829.94;;;33.81;35.10
8573;BME280;4324;42.012;24.872;2022-07-22T10:10:09;98836.56;;;33.80;35.26
8573;BME280;4324;42.012;24.872;2022-07-22T10:12:37;98837.03;;;33.82;34.84
8573;BME280;4324;42.012;24.872;2022-07-22T10:15:05;98827.06;;;33.86;34.53
8573;BME280;4324;42.012;24.872;2022-07-22T10:17:34;98835.28;;;33.94;34.56
8573;BME280;4324;42.012;24.872;2022-07-22T10:20:02;98830.28;;;34.05;34.38
8573;BME280;4324;42.012;24.872;2022-07-22T10:22:51;98820.06;;;34.14;33.85
8573;BME280;4324;42.012;24.872;2022-07-22T10:25:19;98825.56;;;34.23;33.72
8573;BME280;4324;42.012;24.872;2022-07-22T10:27:49;98828.13;;;34.28;33.45
8573;BME280;4324;42.012;24.872;2022-07-22T10:30:18;98823.44;;;34.29;33.30
8573;BME280;4324;42.012;24.872;2022-07-22T10:32:45;98826.38;;;34.24;33.15
8573;BME280;4324;42.012;24.872;2022-07-22T10:35:28;98819.72;;;34.25;33.24
8573;BME280;4324;42.012;24.872;2022-07-22T10:37:59;98819.25;;;34.31;32.99
8573;BME280;4324;42.012;24.872;2022-07-22T10:40:27;98817.59;;;34.39;32.92
8573;BME280;4324;42.012;24.872;2022-07-22T10:43:11;98798.50;;;34.51;32.90
8573;BME280;4324;42.012;24.872;2022-07-22T10:45:40;98801.84;;;34.65;33.10
8573;BME280;4324;42.012;24.872;2022-07-22T10:48:10;98805.59;;;34.90;32.54
8573;BME280;4324;42.012;24.872;2022-07-22T10:50:53;98800.22;;;35.03;32.12
8573;BME280;4324;42.012;24.872;2022-07-22T10:53:24;98801.63;;;35.09;32.01
8573;BME280;4324;42.012;24.872;2022-07-22T10:58:41;98809.94;;;35.00;31.00
8573;BME280;4324;42.012;24.872;2022-07-22T11:01:10;98810.25;;;34.99;30.84
8573;BME280;4324;42.012;24.872;2022-07-22T11:03:39;98802.34;;;34.97;30.55
8573;BME280;4324;42.012;24.872;2022-07-22T11:06:21;98805.06;;;35.06;30.04
8573;BME280;4324;42.012;24.872;2022-07-22T11:08:52;98803.59;;;35.08;30.10
8573;BME280;4324;42.012;24.872;2022-07-22T11:11:31;98801.94;;;35.16;30.05
8573;BME280;4324;42.012;24.872;2022-07-22T11:13:58;98812.53;;;35.26;29.69
8573;BME280;4324;42.012;24.872;2022-07-22T11:16:26;98802.47;;;35.30;30.00
8573;BME280;4324;42.012;24.872;2022-07-22T11:18:55;98804.88;;;35.32;29.48
8573;BME280;4324;42.012;24.872;2022-07-22T11:21:24;98799.66;;;35.39;29.53
8573;BME280;4324;42.012;24.872;2022-07-22T11:23:54;98805.44;;;35.46;29.74
8573;BME280;4324;42.012;24.872;2022-07-22T11:26:26;98804.09;;;35.52;29.83
8573;BME280;4324;42.012;24.872;2022-07-22T11:28:58;98781.97;;;35.40;29.31
8573;BME280;4324;42.012;24.872;2022-07-22T11:31:25;98808.13;;;35.55;29.32
8573;BME280;4324;42.012;24.872;2022-07-22T11:34:04;98802.00;;;35.49;29.18
8573;BME280;4324;42.012;24.872;2022-07-22T11:36:32;98794.41;;;35.46;29.38
8573;BME280;4324;42.012;24.872;2022-07-22T11:39:01;98794.72;;;35.53;29.31
8573;BME280;4324;42.012;24.872;2022-07-22T11:41:29;98798.66;;;35.65;29.85
8573;BME280;4324;42.012;24.872;2022-07-22T11:44:02;98787.44;;;35.70;29.28
8573;BME280;4324;42.012;24.872;2022-07-22T11:46:36;98794.63;;;35.83;28.96
8573;BME280;4324;42.012;24.872;2022-07-22T11:49:04;98788.44;;;35.86;28.85
8573;BME280;4324;42.012;24.872;2022-07-22T11:51:33;98755.63;;;35.60;29.16
8573;BME280;4324;42.012;24.872;2022-07-22T11:54:02;98795.59;;;35.78;28.68
8573;BME280;4324;42.012;24.872;2022-07-22T11:56:30;98793.44;;;35.72;28.87
8573;BME280;4324;42.012;24.872;2022-07-22T11:58:57;98781.00;;;35.66;28.10
8573;BME280;4324;42.012;24.872;2022-07-22T12:01:28;98790.41;;;35.65;28.32
8573;BME280;4324;42.012;24.872;2022-07-22T12:03:59;98789.38;;;35.69;28.38
8573;BME280;4324;42.012;24.872;2022-07-22T12:06:27;98767.84;;;35.71;28.29
8573;BME280;4324;42.012;24.872;2022-07-22T12:09:04;98783.50;;;35.92;28.03
8573;BME280;4324;42.012;24.872;2022-07-22T12:11:32;98775.16;;;36.00;28.08
8573;BME280;4324;42.012;24.872;2022-07-22T12:14:05;98769.19;;;35.98;27.44
8573;BME280;4324;42.012;24.872;2022-07-22T12:16:33;98775.28;;;36.04;27.87
8573;BME280;4324;42.012;24.872;2022-07-22T12:19:05;98776.22;;;36.08;27.35
8573;BME280;4324;42.012;24.872;2022-07-22T12:21:49;98773.81;;;36.06;27.23
8573;BME280;4324;42.012;24.872;2022-07-22T12:24:25;98767.41;;;36.15;26.63
8573;BME280;4324;42.012;24.872;2022-07-22T12:26:53;98760.97;;;36.23;26.60
8573;BME280;4324;42.012;24.872;2022-07-22T12:29:21;98754.78;;;36.26;26.75
8573;BME280;4324;42.012;24.872;2022-07-22T12:31:50;98759.06;;;36.35;26.39
8573;BME280;4324;42.012;24.872;2022-07-22T12:34:29;98749.88;;;36.44;26.73
8573;BME280;4324;42.012;24.872;2022-07-22T12:36:57;98754.50;;;36.52;26.50
8573;BME280;4324;42.012;24.872;2022-07-22T12:39:25;98763.81;;;36.47;26.68
8573;BME280;4324;42.012;24.872;2022-07-22T12:41:54;98757.22;;;36.40;26.32
8573;BME280;4324;42.012;24.872;2022-07-22T12:44:23;98715.59;;;36.08;26.26
8573;BME280;4324;42.012;24.872;2022-07-22T12:46:53;98750.22;;;36.42;26.70
8573;BME280;4324;42.012;24.872;2022-07-22T12:49:22;98751.84;;;36.55;26.06
8573;BME280;4324;42.012;24.872;2022-07-22T12:52:09;98739.56;;;36.53;25.70
8573;BME280;4324;42.012;24.872;2022-07-22T12:54:41;98728.44;;;36.49;25.80
8573;BME280;4324;42.012;24.872;2022-07-22T12:57:08;98738.66;;;36.61;25.72
8573;BME280;4324;42.012;24.872;2022-07-22T12:59:36;98741.97;;;36.67;24.86
8573;BME280;4324;42.012;24.872;2022-07-22T13:02:03;98743.59;;;36.68;25.16
8573;BME280;4324;42.012;24.872;2022-07-22T13:04:30;98744.28;;;36.65;24.70
8573;BME280;4324;42.012;24.872;2022-07-22T13:06:57;98743.69;;;36.59;23.71
8573;BME280;4324;42.012;24.872;2022-07-22T13:09:24;98741.50;;;36.52;24.28
8573;BME280;4324;42.012;24.872;2022-07-22T13:11:52;98744.50;;;36.59;23.87
8573;BME280;4324;42.012;24.872;2022-07-22T13:14:19;98746.91;;;36.61;24.31
8573;BME280;4324;42.012;24.872;2022-07-22T13:16:46;98745.66;;;36.58;24.45
8573;BME280;4324;42.012;24.872;2022-07-22T13:19:13;98740.94;;;36.59;24.36